createdAt,value
2019-03-21T00:01:43.935Z,100451.88
2019-03-21T00:03:53.180Z,100449.47
2019-03-21T00:05:57.601Z,100448.73
2019-03-21T00:08:01.997Z,100451.54
2019-03-21T00:10:47.272Z,100447.98
2019-03-21T00:12:52.715Z,100454.23
2019-03-21T00:15:13.019Z,100459.45
2019-03-21T00:17:25.338Z,100457.54
2019-03-21T00:19:29.680Z,100454.86
2019-03-21T00:21:34.023Z,100454.10
2019-03-21T00:23:39.380Z,100452.05
2019-03-21T00:25:44.715Z,100449.94
2019-03-21T00:27:57.108Z,100454.66
2019-03-21T00:30:01.458Z,100452.95
2019-03-21T00:32:06.940Z,100447.02
2019-03-21T00:34:11.321Z,100452.40
2019-03-21T00:36:15.610Z,100448.25
2019-03-21T00:38:19.972Z,100447.92
2019-03-21T00:40:27.022Z,100452.62
2019-03-21T00:42:31.305Z,100454.77
2019-03-21T00:44:37.578Z,100453.13
2019-03-21T00:46:41.897Z,100453.97
2019-03-21T00:48:47.395Z,100446.88
2019-03-21T00:50:51.765Z,100445.53
2019-03-21T00:52:57.212Z,100455.95
2019-03-21T00:55:01.578Z,100456.60
2019-03-21T00:57:06.134Z,100464.84
2019-03-21T00:59:12.580Z,100460.64
2019-03-21T01:01:18.023Z,100457.95
2019-03-21T01:03:22.374Z,100452.73
2019-03-21T01:05:26.739Z,100464.13
2019-03-21T01:07:31.105Z,100458.05
2019-03-21T01:09:35.738Z,100458.03
2019-03-21T01:11:40.035Z,100456.59
2019-03-21T01:13:44.359Z,100456.20
2019-03-21T01:15:48.647Z,100458.00
2019-03-21T01:17:52.976Z,100454.63
2019-03-21T01:19:57.311Z,100456.95
2019-03-21T01:22:01.644Z,100456.59
2019-03-21T01:24:06.118Z,100454.86
2019-03-21T01:26:10.499Z,100450.63
2019-03-21T01:28:15.927Z,100454.47
2019-03-21T01:30:21.281Z,100450.89
2019-03-21T01:32:25.706Z,100451.70
2019-03-21T01:34:30.102Z,100452.78
2019-03-21T01:36:34.466Z,100450.59
2019-03-21T01:38:39.833Z,100450.55
2019-03-21T01:40:44.926Z,100445.23
2019-03-21T01:42:49.262Z,100446.22
2019-03-21T01:44:53.605Z,100448.02
2019-03-21T01:46:58.912Z,100448.39
2019-03-21T01:49:03.247Z,100447.17
2019-03-21T01:51:07.715Z,100453.77
2019-03-21T01:53:13.162Z,100445.14
2019-03-21T01:55:17.521Z,100446.48
2019-03-21T01:57:21.858Z,100444.29
2019-03-21T01:59:27.279Z,100436.59
2019-03-21T02:01:31.660Z,100438.30
2019-03-21T02:03:36.014Z,100440.26
2019-03-21T02:05:40.342Z,100433.78
2019-03-21T02:07:44.606Z,100431.70
2019-03-21T02:09:49.981Z,100425.92
2019-03-21T02:11:55.301Z,100438.34
2019-03-21T02:13:59.628Z,100429.44
2019-03-21T02:16:04.207Z,100435.33
2019-03-21T02:18:08.608Z,100431.30
2019-03-21T02:20:13.878Z,100428.41
2019-03-21T02:22:18.193Z,100426.34
2019-03-21T02:24:22.523Z,100418.08
2019-03-21T02:26:26.882Z,100421.25
2019-03-21T02:28:31.243Z,100423.12
2019-03-21T02:30:36.606Z,100419.22
2019-03-21T02:32:41.248Z,100429.27
2019-03-21T02:34:45.530Z,100429.70
2019-03-21T02:36:49.913Z,100432.06
2019-03-21T02:38:55.293Z,100426.84
2019-03-21T02:41:00.993Z,100416.13
2019-03-21T02:43:05.442Z,100420.74
2019-03-21T02:45:11.075Z,100421.56
2019-03-21T02:47:15.402Z,100419.89
2019-03-21T02:49:19.764Z,100419.41
2019-03-21T02:51:24.044Z,100417.33
2019-03-21T02:53:28.468Z,100419.59
2019-03-21T02:55:32.839Z,100411.49
2019-03-21T02:57:37.223Z,100408.75
2019-03-21T02:59:41.559Z,100405.66
2019-03-21T03:01:46.016Z,100404.10
2019-03-21T03:03:50.344Z,100405.56
2019-03-21T03:05:55.817Z,100411.42
2019-03-21T03:08:01.159Z,100415.11
2019-03-21T03:10:08.021Z,100413.13
2019-03-21T03:12:12.299Z,100415.03
2019-03-21T03:14:16.641Z,100418.34
2019-03-21T03:16:21.211Z,100424.08
2019-03-21T03:18:25.734Z,100423.72
2019-03-21T03:20:31.027Z,100429.56
2019-03-21T03:22:35.382Z,100426.67
2019-03-21T03:24:39.927Z,100424.78
2019-03-21T03:26:44.245Z,100434.02
2019-03-21T03:28:49.602Z,100443.03
2019-03-21T03:30:55.596Z,100441.48
2019-03-21T03:33:00.039Z,100440.87
2019-03-21T03:35:06.427Z,100437.83
2019-03-21T03:37:12.676Z,100441.78
2019-03-21T03:39:17.122Z,100452.14
2019-03-21T03:41:21.466Z,100450.16
2019-03-21T03:43:25.805Z,100453.06
2019-03-21T03:45:38.051Z,100451.51
2019-03-21T03:47:38.173Z,100455.68
2019-03-21T03:49:42.527Z,100453.20
2019-03-21T03:51:47.823Z,100450.09
2019-03-21T03:53:53.157Z,100448.75
2019-03-21T03:55:57.560Z,100449.45
2019-03-21T03:58:02.925Z,100444.00
2019-03-21T04:00:08.817Z,100442.32
2019-03-21T04:02:19.053Z,100451.00
2019-03-21T04:04:23.382Z,100453.25
2019-03-21T04:06:27.936Z,100461.94
2019-03-21T04:08:32.249Z,100455.77
2019-03-21T04:10:38.641Z,100456.88
2019-03-21T04:12:43.278Z,100457.63
2019-03-21T04:14:47.565Z,100458.48
2019-03-21T04:16:51.996Z,100452.77
2019-03-21T04:18:56.297Z,100451.08
2019-03-21T04:21:01.153Z,100451.20
2019-03-21T04:23:06.636Z,100445.14
2019-03-21T04:25:13.969Z,100440.41
2019-03-21T04:27:18.345Z,100442.19
2019-03-21T04:29:22.659Z,100444.23
2019-03-21T04:31:27.119Z,100443.87
2019-03-21T04:33:31.440Z,100444.28
2019-03-21T04:35:35.751Z,100450.55
2019-03-21T04:37:40.280Z,100450.06
2019-03-21T04:39:44.576Z,100447.75
2019-03-21T04:41:49.987Z,100463.67
2019-03-21T04:43:55.401Z,100455.42
2019-03-21T04:46:03.697Z,100458.84
2019-03-21T04:48:07.934Z,100450.47
2019-03-21T04:50:14.959Z,100452.30
2019-03-21T04:52:19.273Z,100447.91
2019-03-21T04:54:24.583Z,100451.93
2019-03-21T04:56:28.956Z,100456.29
2019-03-21T04:58:33.323Z,100456.11
2019-03-21T05:00:38.182Z,100452.84
2019-03-21T05:02:42.683Z,100452.23
2019-03-21T05:04:47.006Z,100458.64
2019-03-21T05:06:53.437Z,100457.30
2019-03-21T05:08:57.768Z,100461.95
2019-03-21T05:11:02.174Z,100462.84
2019-03-21T05:13:06.489Z,100454.84
2019-03-21T05:15:13.854Z,100460.27
2019-03-21T05:17:20.158Z,100461.50
2019-03-21T05:19:24.457Z,100461.65
2019-03-21T05:21:28.819Z,100461.42
2019-03-21T05:23:33.111Z,100468.45
2019-03-21T05:25:39.448Z,100460.94
2019-03-21T05:27:43.803Z,100463.95
2019-03-21T05:29:48.102Z,100469.05
2019-03-21T05:31:53.468Z,100470.13
2019-03-21T05:33:59.771Z,100473.30
2019-03-21T05:36:04.369Z,100472.66
2019-03-21T05:38:08.794Z,100473.11
2019-03-21T05:40:14.396Z,100473.70
2019-03-21T05:42:20.814Z,100479.51
2019-03-21T05:44:31.972Z,100476.91
2019-03-21T05:46:36.345Z,100474.67
2019-03-21T05:48:40.661Z,100472.58
2019-03-21T05:50:45.978Z,100474.48
2019-03-21T05:52:50.477Z,100474.10
2019-03-21T05:54:54.811Z,100475.36
2019-03-21T05:56:59.178Z,100478.27
2019-03-21T05:59:03.604Z,100470.18
2019-03-21T06:01:07.991Z,100472.91
2019-03-21T06:03:21.863Z,100462.06
2019-03-21T06:05:26.326Z,100470.64
2019-03-21T06:07:45.014Z,100473.97
2019-03-21T06:09:49.310Z,100470.06
2019-03-21T06:11:56.509Z,100472.27
2019-03-21T06:14:01.826Z,100464.47
2019-03-21T06:16:10.390Z,100461.84
2019-03-21T06:18:31.960Z,100462.03
2019-03-21T06:21:09.251Z,100469.95
2019-03-21T06:23:47.056Z,100461.75
2019-03-21T06:26:15.231Z,100460.64
2019-03-21T06:28:19.533Z,100471.08
2019-03-21T06:30:23.827Z,100468.77
2019-03-21T06:32:28.562Z,100465.72
2019-03-21T06:34:32.877Z,100465.90
2019-03-21T06:36:37.206Z,100456.16
2019-03-21T06:38:41.510Z,100457.55
2019-03-21T06:40:45.905Z,100451.54
2019-03-21T06:42:50.335Z,100452.37
2019-03-21T06:44:54.835Z,100454.31
2019-03-21T06:47:00.237Z,100454.13
2019-03-21T06:49:04.542Z,100450.43
2019-03-21T06:51:08.835Z,100458.59
2019-03-21T06:53:13.190Z,100453.79
2019-03-21T06:55:17.585Z,100454.47
2019-03-21T06:57:21.910Z,100456.20
2019-03-21T06:59:26.282Z,100447.14
2019-03-21T07:01:30.624Z,100451.46
2019-03-21T07:03:34.989Z,100444.54
2019-03-21T07:05:40.289Z,100433.18
2019-03-21T07:07:44.581Z,100433.03
2019-03-21T07:09:48.907Z,100435.98
2019-03-21T07:11:53.209Z,100435.89
2019-03-21T07:13:58.563Z,100434.23
2019-03-21T07:16:02.992Z,100430.80
2019-03-21T07:18:07.281Z,100442.70
2019-03-21T07:20:12.625Z,100438.50
2019-03-21T07:22:16.938Z,100437.30
2019-03-21T07:24:22.271Z,100439.73
2019-03-21T07:26:26.684Z,100444.28
2019-03-21T07:28:31.055Z,100431.64
2019-03-21T07:30:35.612Z,100435.12
2019-03-21T07:32:41.041Z,100432.94
2019-03-21T07:34:46.412Z,100428.13
2019-03-21T07:36:50.856Z,100425.52
2019-03-21T07:38:55.155Z,100425.03
2019-03-21T07:40:59.511Z,100427.88
2019-03-21T07:43:03.890Z,100430.92
2019-03-21T07:45:09.464Z,100428.73
2019-03-21T07:47:13.865Z,100432.53
2019-03-21T07:49:20.225Z,100419.98
2019-03-21T07:51:24.538Z,100420.50
2019-03-21T07:53:28.965Z,100417.60
2019-03-21T07:55:33.382Z,100424.66
2019-03-21T07:57:37.871Z,100425.77
2019-03-21T07:59:42.182Z,100417.38
2019-03-21T08:01:46.520Z,100409.95
2019-03-21T08:03:50.900Z,100414.83
2019-03-21T08:05:55.333Z,100411.22
2019-03-21T08:07:59.808Z,100417.70
2019-03-21T08:10:04.790Z,100412.45
2019-03-21T08:12:09.115Z,100410.74
2019-03-21T08:14:13.605Z,100406.84
2019-03-21T08:16:17.989Z,100410.05
2019-03-21T08:18:22.336Z,100409.13
2019-03-21T08:20:28.721Z,100407.97
2019-03-21T08:22:36.238Z,100414.08
2019-03-21T08:24:40.726Z,100413.77
2019-03-21T08:26:45.100Z,100413.78
2019-03-21T08:28:49.459Z,100409.84
2019-03-21T08:31:19.182Z,100412.32
2019-03-21T08:33:23.515Z,100414.94
2019-03-21T08:35:27.892Z,100415.73
2019-03-21T08:37:32.232Z,100415.31
2019-03-21T08:39:37.539Z,100419.23
2019-03-21T08:41:42.905Z,100418.37
2019-03-21T08:43:47.232Z,100415.86
2019-03-21T08:45:51.605Z,100418.52
2019-03-21T08:47:56.985Z,100412.58
2019-03-21T08:50:01.271Z,100412.17
2019-03-21T08:52:06.675Z,100408.02
2019-03-21T08:54:11.026Z,100410.00
2019-03-21T08:56:15.457Z,100401.64
2019-03-21T08:58:19.788Z,100400.36
2019-03-21T09:00:34.035Z,100400.38
2019-03-21T09:02:32.597Z,100400.98
2019-03-21T09:04:36.905Z,100401.95
2019-03-21T09:06:41.255Z,100395.48
2019-03-21T09:08:45.569Z,100399.71
2019-03-21T09:10:49.871Z,100394.83
2019-03-21T09:12:56.236Z,100401.22
2019-03-21T09:15:00.605Z,100399.69
2019-03-21T09:17:06.060Z,100400.00
2019-03-21T09:19:10.396Z,100396.20
2019-03-21T09:21:19.769Z,100397.45
2019-03-21T09:23:20.816Z,100394.69
2019-03-21T09:25:25.337Z,100387.03
2019-03-21T09:27:29.719Z,100394.73
2019-03-21T09:29:34.013Z,100386.98
2019-03-21T09:31:38.327Z,100392.80
2019-03-21T09:33:42.665Z,100396.48
2019-03-21T09:35:47.999Z,100390.45
2019-03-21T09:37:52.314Z,100383.03
2019-03-21T09:39:56.654Z,100381.12
2019-03-21T09:42:01.038Z,100381.84
2019-03-21T09:44:05.656Z,100381.52
2019-03-21T09:46:10.046Z,100370.92
2019-03-21T09:48:14.441Z,100374.64
2019-03-21T09:50:26.960Z,100371.74
2019-03-21T09:52:31.399Z,100366.17
2019-03-21T09:54:35.760Z,100377.44
2019-03-21T09:56:40.067Z,100371.44
2019-03-21T09:58:44.376Z,100369.18
2019-03-21T10:00:48.677Z,100369.49
2019-03-21T10:02:53.022Z,100370.00
2019-03-21T10:04:57.430Z,100365.58
2019-03-21T10:07:01.771Z,100370.78
2019-03-21T10:09:07.666Z,100370.66
2019-03-21T10:11:12.053Z,100360.00
2019-03-21T10:13:16.512Z,100360.84
2019-03-21T10:15:22.898Z,100357.65
2019-03-21T10:17:27.324Z,100364.11
2019-03-21T10:19:31.723Z,100358.34
2019-03-21T10:21:43.418Z,100365.50
2019-03-21T10:23:44.214Z,100361.30
2019-03-21T10:25:48.680Z,100360.96
2019-03-21T10:27:53.069Z,100359.88
2019-03-21T10:29:57.394Z,100347.56
2019-03-21T10:32:13.885Z,100351.84
2019-03-21T10:34:09.998Z,100346.44
2019-03-21T10:36:16.132Z,100340.38
2019-03-21T10:38:20.600Z,100345.02
2019-03-21T10:40:24.895Z,100347.27
2019-03-21T10:42:29.306Z,100338.09
2019-03-21T10:44:33.606Z,100330.48
2019-03-21T10:46:43.072Z,100332.86
2019-03-21T10:48:47.396Z,100333.69
2019-03-21T10:50:51.706Z,100331.92
2019-03-21T10:52:56.022Z,100331.29
2019-03-21T10:55:00.472Z,100322.47
2019-03-21T10:57:04.818Z,100320.86
2019-03-21T10:59:09.176Z,100322.58
2019-03-21T11:01:13.460Z,100318.97
2019-03-21T11:03:17.869Z,100322.50
2019-03-21T11:05:23.493Z,100324.08
2019-03-21T11:07:27.841Z,100320.95
2019-03-21T11:09:34.279Z,100307.86
2019-03-21T11:11:38.631Z,100305.14
2019-03-21T11:13:42.933Z,100308.55
2019-03-21T11:15:47.425Z,100309.34
2019-03-21T11:17:52.327Z,100313.92
2019-03-21T11:19:56.736Z,100310.30
2019-03-21T11:22:06.302Z,100309.59
2019-03-21T11:24:07.420Z,100300.91
2019-03-21T11:26:11.901Z,100297.02
2019-03-21T11:28:17.756Z,100291.94
2019-03-21T11:30:29.916Z,100291.17
2019-03-21T11:32:34.256Z,100284.80
2019-03-21T11:34:39.608Z,100291.37
2019-03-21T11:36:43.914Z,100274.89
2019-03-21T11:38:48.282Z,100276.92
2019-03-21T11:40:52.802Z,100260.73
2019-03-21T11:42:57.504Z,100266.04
2019-03-21T11:45:01.873Z,100261.88
2019-03-21T11:47:08.204Z,100249.86
2019-03-21T11:49:13.537Z,100253.54
2019-03-21T11:51:18.921Z,100249.08
2019-03-21T11:53:23.261Z,100242.73
2019-03-21T11:55:27.667Z,100236.16
2019-03-21T11:57:33.020Z,100240.18
2019-03-21T11:59:50.712Z,100242.77
2019-03-21T12:01:43.451Z,100237.73
2019-03-21T12:03:49.770Z,100234.52
2019-03-21T12:05:54.064Z,100233.17
2019-03-21T12:07:58.371Z,100222.05
2019-03-21T12:10:02.805Z,100225.11
2019-03-21T12:12:08.138Z,100228.30
2019-03-21T12:14:12.435Z,100226.53
2019-03-21T12:16:17.858Z,100217.27
2019-03-21T12:18:22.181Z,100219.55
2019-03-21T12:20:35.817Z,100226.72
2019-03-21T12:22:40.214Z,100218.53
2019-03-21T12:24:44.555Z,100211.80
2019-03-21T12:26:49.998Z,100197.40
2019-03-21T12:28:54.377Z,100206.33
2019-03-21T12:30:59.717Z,100206.55
2019-03-21T12:33:04.353Z,100208.94
2019-03-21T12:35:09.931Z,100201.03
2019-03-21T12:37:14.326Z,100193.96
2019-03-21T12:39:18.718Z,100188.61
2019-03-21T12:41:29.197Z,100186.78
2019-03-21T12:43:33.569Z,100193.45
2019-03-21T12:45:39.049Z,100188.27
2019-03-21T12:47:43.391Z,100181.78
2019-03-21T12:49:47.719Z,100182.02
2019-03-21T12:51:53.046Z,100177.47
2019-03-21T12:53:58.482Z,100171.88
2019-03-21T12:56:05.058Z,100170.19
2019-03-21T12:58:09.367Z,100173.36
2019-03-21T13:00:14.236Z,100169.05
2019-03-21T13:02:18.619Z,100165.01
2019-03-21T13:04:24.045Z,100162.91
2019-03-21T13:06:28.371Z,100158.34
2019-03-21T13:08:34.269Z,100155.45
2019-03-21T13:10:38.840Z,100149.71
2019-03-21T13:12:43.136Z,100148.77
2019-03-21T13:14:47.457Z,100146.50
2019-03-21T13:16:51.850Z,100144.80
2019-03-21T13:18:56.211Z,100143.13
2019-03-21T13:21:00.607Z,100138.41
2019-03-21T13:23:05.510Z,100136.75
2019-03-21T13:25:10.067Z,100135.63
2019-03-21T13:27:14.373Z,100131.48
2019-03-21T13:29:18.696Z,100128.33
2019-03-21T13:31:24.113Z,100129.53
2019-03-21T13:33:28.553Z,100124.28
2019-03-21T13:35:33.309Z,100126.95
2019-03-21T13:37:37.691Z,100126.71
2019-03-21T13:39:42.016Z,100121.85
2019-03-21T13:41:46.366Z,100113.33
2019-03-21T13:43:51.686Z,100106.98
2019-03-21T13:45:56.106Z,100105.09
2019-03-21T13:48:00.427Z,100106.83
2019-03-21T13:50:06.575Z,100100.12
2019-03-21T13:52:10.911Z,100098.03
2019-03-21T13:54:16.206Z,100098.99
2019-03-21T13:56:21.573Z,100097.66
2019-03-21T13:58:26.884Z,100095.30
2019-03-21T14:00:32.377Z,100087.23
2019-03-21T14:02:36.772Z,100078.71
2019-03-21T14:04:41.068Z,100080.64
2019-03-21T14:06:45.426Z,100076.17
2019-03-21T14:08:49.850Z,100070.04
2019-03-21T14:10:54.298Z,100078.13
2019-03-21T14:12:59.675Z,100072.78
2019-03-21T14:15:05.067Z,100070.05
2019-03-21T14:17:09.464Z,100063.92
2019-03-21T14:19:13.768Z,100063.94
2019-03-21T14:21:18.063Z,100056.56
2019-03-21T14:23:22.400Z,100052.80
2019-03-21T14:25:26.884Z,100054.19
2019-03-21T14:27:31.217Z,100048.92
2019-03-21T14:29:35.683Z,100047.80
2019-03-21T14:31:40.084Z,100051.05
2019-03-21T14:33:44.501Z,100049.94
2019-03-21T14:35:50.805Z,100045.09
2019-03-21T14:37:56.144Z,100044.03
2019-03-21T14:40:00.520Z,100046.67
2019-03-21T14:42:04.974Z,100046.34
2019-03-21T14:44:09.347Z,100045.50
2019-03-21T14:46:13.713Z,100043.35
2019-03-21T14:48:18.087Z,100038.41
2019-03-21T14:50:22.444Z,100038.41
2019-03-21T14:52:26.776Z,100034.33
2019-03-21T14:54:31.094Z,100041.40
2019-03-21T14:56:35.477Z,100036.11
2019-03-21T14:58:39.818Z,100037.42
2019-03-21T15:00:46.229Z,100034.84
2019-03-21T15:02:50.641Z,100036.30
2019-03-21T15:04:54.996Z,100040.84
2019-03-21T15:06:59.405Z,100035.62
2019-03-21T15:09:05.667Z,100025.31
2019-03-21T15:11:16.894Z,100026.03
2019-03-21T15:13:17.129Z,100022.69
2019-03-21T15:15:21.584Z,100023.52
2019-03-21T15:17:25.978Z,100020.56
2019-03-21T15:19:31.483Z,100020.86
2019-03-21T15:21:35.841Z,100027.38
2019-03-21T15:23:44.212Z,100016.94
2019-03-21T15:25:48.668Z,100023.95
2019-03-21T15:27:53.185Z,100017.94
2019-03-21T15:29:57.641Z,100020.77
2019-03-21T15:32:01.972Z,100020.27
2019-03-21T15:34:08.385Z,100018.64
2019-03-21T15:36:14.672Z,100021.44
2019-03-21T15:38:19.014Z,100019.53
2019-03-21T15:40:24.364Z,100018.21
2019-03-21T15:42:28.765Z,100012.75
2019-03-21T15:44:33.087Z,100011.14
2019-03-21T15:46:37.412Z,100011.20
2019-03-21T15:48:41.848Z,100011.23
2019-03-21T15:50:46.236Z,100011.80
2019-03-21T15:52:50.557Z,100007.69
2019-03-21T15:54:54.880Z,100004.66
2019-03-21T15:56:59.653Z,100003.30
2019-03-21T15:59:04.087Z,100003.33
2019-03-21T16:01:08.454Z,100001.98
2019-03-21T16:03:13.398Z,100002.01
2019-03-21T16:05:17.766Z,100006.46
2019-03-21T16:07:24.115Z,100007.33
2019-03-21T16:09:28.481Z,100004.83
2019-03-21T16:11:32.849Z,99999.31
2019-03-21T16:13:37.216Z,100002.38
2019-03-21T16:15:41.655Z,100001.51
2019-03-21T16:17:46.305Z,100008.73
2019-03-21T16:19:50.698Z,100007.35
2019-03-21T16:21:55.067Z,100014.53
2019-03-21T16:24:05.140Z,100002.36
2019-03-21T16:26:05.680Z,100005.12
2019-03-21T16:28:10.044Z,99997.66
2019-03-21T16:30:14.959Z,99999.89
2019-03-21T16:32:20.443Z,100000.69
2019-03-21T16:34:24.876Z,99995.99
2019-03-21T16:36:29.115Z,99997.38
2019-03-21T16:38:35.403Z,99995.44
2019-03-21T16:40:39.870Z,99997.66
2019-03-21T16:42:44.227Z,99992.95
2019-03-21T16:44:52.235Z,99999.88
2019-03-21T16:46:56.610Z,99997.91
2019-03-21T16:49:02.022Z,99998.47
2019-03-21T16:51:06.406Z,99996.80
2019-03-21T16:53:10.787Z,99995.11
2019-03-21T16:55:15.227Z,99999.55
2019-03-21T16:57:19.578Z,100001.97
2019-03-21T16:59:26.283Z,100000.58
2019-03-21T17:01:30.663Z,100001.95
2019-03-21T17:03:36.041Z,100004.69
2019-03-21T17:05:40.523Z,100006.87
2019-03-21T17:07:44.810Z,100013.47
2019-03-21T17:09:49.193Z,100008.74
2019-03-21T17:11:53.584Z,100003.19
2019-03-21T17:13:57.865Z,100015.02
2019-03-21T17:16:02.199Z,100006.99
2019-03-21T17:18:06.670Z,100012.18
2019-03-21T17:20:11.382Z,100013.81
2019-03-21T17:22:15.805Z,100016.22
2019-03-21T17:24:29.339Z,100008.41
2019-03-21T17:26:26.399Z,100020.19
2019-03-21T17:28:30.757Z,100017.61
2019-03-21T17:30:37.097Z,100026.63
2019-03-21T17:32:41.490Z,100024.91
2019-03-21T17:34:45.913Z,100024.52
2019-03-21T17:36:51.262Z,100023.05
2019-03-21T17:38:56.625Z,100037.81
2019-03-21T17:41:02.001Z,100033.78
2019-03-21T17:43:07.369Z,100040.21
2019-03-21T17:45:13.892Z,100041.80
2019-03-21T17:47:18.316Z,100044.11
2019-03-21T17:49:22.733Z,100045.89
2019-03-21T17:51:28.081Z,100045.46
2019-03-21T17:53:32.456Z,100048.77
2019-03-21T17:55:36.855Z,100046.14
2019-03-21T17:57:41.193Z,100045.39
2019-03-21T17:59:45.544Z,100048.63
2019-03-21T18:01:51.295Z,100052.87
2019-03-21T18:03:56.816Z,100053.36
2019-03-21T18:06:01.236Z,100049.10
2019-03-21T18:08:05.617Z,100050.30
2019-03-21T18:10:23.577Z,100049.86
2019-03-21T18:12:27.973Z,100058.23
2019-03-21T18:14:32.374Z,100057.39
2019-03-21T18:16:36.753Z,100056.01
2019-03-21T18:18:41.115Z,100055.28
2019-03-21T18:20:45.546Z,100056.14
2019-03-21T18:22:51.043Z,100056.25
2019-03-21T18:24:55.453Z,100056.27
2019-03-21T18:26:59.887Z,100060.17
2019-03-21T18:29:05.359Z,100048.86
2019-03-21T18:31:09.774Z,100060.71
2019-03-21T18:33:14.218Z,100066.38
2019-03-21T18:35:19.852Z,100061.82
2019-03-21T18:37:25.172Z,100060.67
2019-03-21T18:39:30.553Z,100063.13
2019-03-21T18:41:35.831Z,100068.97
2019-03-21T18:43:40.385Z,100065.32
2019-03-21T18:45:45.776Z,100069.65
2019-03-21T18:47:51.245Z,100068.98
2019-03-21T18:49:56.603Z,100069.34
2019-03-21T18:52:01.013Z,100074.08
2019-03-21T18:54:05.495Z,100069.20
2019-03-21T18:56:09.892Z,100073.81
2019-03-21T18:58:14.250Z,100070.55
2019-03-21T19:00:19.520Z,100071.32
2019-03-21T19:02:23.805Z,100077.83
2019-03-21T19:04:28.154Z,100077.55
2019-03-21T19:06:32.489Z,100080.04
2019-03-21T19:08:36.979Z,100077.09
2019-03-21T19:10:41.334Z,100078.39
2019-03-21T19:12:45.824Z,100077.09
2019-03-21T19:14:51.149Z,100076.94
2019-03-21T19:16:55.474Z,100078.70
2019-03-21T19:18:59.768Z,100075.10
2019-03-21T19:21:04.177Z,100078.16
2019-03-21T19:23:08.486Z,100079.92
2019-03-21T19:25:18.488Z,100080.58
2019-03-21T19:27:19.393Z,100083.23
2019-03-21T19:29:23.705Z,100086.81
2019-03-21T19:31:28.021Z,100082.80
2019-03-21T19:33:32.324Z,100089.39
2019-03-21T19:35:36.660Z,100093.63
2019-03-21T19:37:41.988Z,100093.17
2019-03-21T19:39:46.297Z,100098.73
2019-03-21T19:41:50.799Z,100097.52
2019-03-21T19:43:56.125Z,100099.09
2019-03-21T19:46:00.564Z,100100.30
2019-03-21T19:48:05.001Z,100095.58
2019-03-21T19:50:10.194Z,100098.79
2019-03-21T19:52:14.571Z,100100.58
2019-03-21T19:54:18.931Z,100097.82
2019-03-21T19:56:23.284Z,100099.22
2019-03-21T19:58:27.671Z,100094.42
2019-03-21T20:00:32.003Z,100095.94
2019-03-21T20:02:38.449Z,100096.77
2019-03-21T20:04:42.863Z,100103.45
2019-03-21T20:06:48.250Z,100101.72
2019-03-21T20:08:53.572Z,100105.45
2019-03-21T20:10:57.976Z,100107.89
2019-03-21T20:13:04.408Z,100110.30
2019-03-21T20:15:10.148Z,100110.44
2019-03-21T20:17:15.432Z,100116.76
2019-03-21T20:19:19.733Z,100121.51
2019-03-21T20:21:25.916Z,100116.66
2019-03-21T20:23:30.262Z,100117.70
2019-03-21T20:25:42.815Z,100111.71
2019-03-21T20:27:40.870Z,100118.13
2019-03-21T20:29:45.191Z,100121.32
2019-03-21T20:31:49.662Z,100127.11
2019-03-21T20:33:54.021Z,100125.27
2019-03-21T20:35:58.452Z,100128.09
2019-03-21T20:38:03.921Z,100131.89
2019-03-21T20:40:10.214Z,100124.91
2019-03-21T20:42:14.599Z,100121.17
2019-03-21T20:44:19.018Z,100124.41
2019-03-21T20:46:23.413Z,100122.66
2019-03-21T20:48:29.506Z,100128.44
2019-03-21T20:50:33.868Z,100127.09
2019-03-21T20:52:38.247Z,100129.50
2019-03-21T20:54:42.621Z,100138.40
2019-03-21T20:56:47.091Z,100135.56
2019-03-21T20:58:53.565Z,100129.67
2019-03-21T21:00:57.576Z,100134.61
2019-03-21T21:03:01.963Z,100137.95
2019-03-21T21:05:08.423Z,100134.59
2019-03-21T21:07:17.264Z,100138.08
2019-03-21T21:09:21.753Z,100139.73
2019-03-21T21:11:26.203Z,100140.77
2019-03-21T21:13:30.999Z,100136.06
2019-03-21T21:15:35.427Z,100141.63
2019-03-21T21:17:39.735Z,100134.27
2019-03-21T21:19:44.265Z,100139.20
2019-03-21T21:21:48.552Z,100130.92
2019-03-21T21:23:52.934Z,100133.76
2019-03-21T21:26:05.446Z,100131.95
2019-03-21T21:28:06.409Z,100135.20
2019-03-21T21:30:12.474Z,100133.73
2019-03-21T21:32:17.028Z,100141.02
2019-03-21T21:34:24.311Z,100143.07
2019-03-21T21:36:28.798Z,100143.98
2019-03-21T21:38:33.250Z,100139.55
2019-03-21T21:40:37.685Z,100139.83
2019-03-21T21:42:42.037Z,100143.16
2019-03-21T21:44:48.839Z,100138.34
2019-03-21T21:46:53.436Z,100138.52
2019-03-21T21:48:57.708Z,100136.63
2019-03-21T21:51:02.028Z,100138.78
2019-03-21T21:53:06.443Z,100129.14
2019-03-21T21:55:12.193Z,100138.87
2019-03-21T21:57:17.573Z,100133.38
2019-03-21T21:59:21.896Z,100132.06
2019-03-21T22:01:26.190Z,100131.58
2019-03-21T22:03:30.487Z,100129.08
2019-03-21T22:05:34.791Z,100139.98
2019-03-21T22:07:39.158Z,100130.89
2019-03-21T22:09:44.452Z,100135.66
2019-03-21T22:11:48.849Z,100131.89
2019-03-21T22:13:55.175Z,100128.75
2019-03-21T22:15:59.566Z,100138.56
2019-03-21T22:18:03.992Z,100142.30
2019-03-21T22:20:09.582Z,100146.05
2019-03-21T22:22:13.950Z,100142.52
2019-03-21T22:24:18.253Z,100143.03
2019-03-21T22:26:29.525Z,100140.33
2019-03-21T22:28:28.640Z,100138.27
2019-03-21T22:30:32.955Z,100141.05
2019-03-21T22:32:37.455Z,100139.69
2019-03-21T22:34:42.785Z,100142.91
2019-03-21T22:36:49.545Z,100138.20
2019-03-21T22:38:54.102Z,100144.28
2019-03-21T22:40:59.407Z,100150.31
2019-03-21T22:43:03.856Z,100142.84
2019-03-21T22:45:10.994Z,100138.52
2019-03-21T22:47:15.410Z,100140.64
2019-03-21T22:49:19.852Z,100136.91
2019-03-21T22:51:25.196Z,100145.81
2019-03-21T22:53:30.267Z,100145.48
2019-03-21T22:55:34.648Z,100136.10
2019-03-21T22:57:40.123Z,100136.77
2019-03-21T22:59:44.406Z,100138.30
2019-03-21T23:01:48.786Z,100137.88
2019-03-21T23:03:53.169Z,100131.64
2019-03-21T23:05:57.447Z,100132.95
2019-03-21T23:08:02.815Z,100137.53
2019-03-21T23:10:08.095Z,100131.47
2019-03-21T23:12:12.536Z,100129.13
2019-03-21T23:14:16.852Z,100124.59
2019-03-21T23:16:21.181Z,100124.67
2019-03-21T23:18:25.505Z,100126.41
2019-03-21T23:20:29.829Z,100120.22
2019-03-21T23:22:34.134Z,100126.40
2019-03-21T23:24:38.466Z,100115.16
2019-03-21T23:26:52.444Z,100126.84
2019-03-21T23:28:48.935Z,100126.98
2019-03-21T23:30:53.206Z,100125.75
2019-03-21T23:32:57.527Z,100137.75
2019-03-21T23:35:01.877Z,100139.23
2019-03-21T23:37:06.345Z,100137.95
2019-03-21T23:39:10.866Z,100131.92
2019-03-21T23:41:15.192Z,100137.54
2019-03-21T23:43:19.619Z,100138.14
2019-03-21T23:45:23.929Z,100140.44
2019-03-21T23:47:28.248Z,100140.86
2019-03-21T23:49:32.585Z,100142.45